sensor_id;sensor_type;location;lat;lon;timestamp;P1;durP1;ratioP1;P2;durP2;ratioP2
59145;SDS011;44928;53.074;6.646;2023-03-17T00:01:45;9.40;;;2.83;;
59145;SDS011;44928;53.074;6.646;2023-03-17T00:04:16;7.03;;;2.55;;
59145;SDS011;44928;53.074;6.646;2023-03-17T00:06:43;7.55;;;2.95;;
59145;SDS011;44928;53.074;6.646;2023-03-17T00:09:13;6.55;;;2.20;;
59145;SDS011;44928;53.074;6.646;2023-03-17T00:11:41;7.28;;;2.42;;
59145;SDS011;44928;53.074;6.646;2023-03-17T00:14:08;7.45;;;2.72;;
59145;SDS011;44928;53.074;6.646;2023-03-17T00:16:38;7.28;;;2.20;;
59145;SDS011;44928;53.074;6.646;2023-03-17T00:22:04;6.55;;;2.40;;
59145;SDS011;44928;53.074;6.646;2023-03-17T00:24:35;6.97;;;2.45;;
59145;SDS011;44928;53.074;6.646;2023-03-17T00:27:01;7.30;;;2.60;;
59145;SDS011;44928;53.074;6.646;2023-03-17T00:29:34;7.22;;;2.28;;
59145;SDS011;44928;53.074;6.646;2023-03-17T00:31:59;7.47;;;2.40;;
59145;SDS011;44928;53.074;6.646;2023-03-17T00:34:25;5.75;;;2.20;;
59145;SDS011;44928;53.074;6.646;2023-03-17T00:36:52;7.50;;;2.17;;
59145;SDS011;44928;53.074;6.646;2023-03-17T00:39:18;8.07;;;2.45;;
59145;SDS011;44928;53.074;6.646;2023-03-17T00:41:44;8.95;;;2.45;;
59145;SDS011;44928;53.074;6.646;2023-03-17T00:44:11;6.53;;;2.40;;
59145;SDS011;44928;53.074;6.646;2023-03-17T00:46:37;9.57;;;3.00;;
59145;SDS011;44928;53.074;6.646;2023-03-17T00:49:16;6.38;;;2.60;;
59145;SDS011;44928;53.074;6.646;2023-03-17T00:51:45;6.88;;;2.45;;
59145;SDS011;44928;53.074;6.646;2023-03-17T00:54:11;9.05;;;2.78;;
59145;SDS011;44928;53.074;6.646;2023-03-17T00:56:38;7.07;;;2.45;;
59145;SDS011;44928;53.074;6.646;2023-03-17T00:59:19;5.50;;;2.20;;
59145;SDS011;44928;53.074;6.646;2023-03-17T01:01:50;8.57;;;2.38;;
59145;SDS011;44928;53.074;6.646;2023-03-17T01:04:16;7.43;;;2.65;;
59145;SDS011;44928;53.074;6.646;2023-03-17T01:06:43;7.10;;;2.42;;
59145;SDS011;44928;53.074;6.646;2023-03-17T01:09:13;8.65;;;3.10;;
59145;SDS011;44928;53.074;6.646;2023-03-17T01:11:41;7.80;;;2.67;;
59145;SDS011;44928;53.074;6.646;2023-03-17T01:14:08;6.72;;;2.50;;
59145;SDS011;44928;53.074;6.646;2023-03-17T01:16:35;7.32;;;2.30;;
59145;SDS011;44928;53.074;6.646;2023-03-17T01:19:00;5.95;;;2.50;;
59145;SDS011;44928;53.074;6.646;2023-03-17T01:21:26;6.10;;;2.33;;
59145;SDS011;44928;53.074;6.646;2023-03-17T01:23:52;7.43;;;2.60;;
59145;SDS011;44928;53.074;6.646;2023-03-17T01:26:19;6.13;;;2.47;;
59145;SDS011;44928;53.074;6.646;2023-03-17T01:28:44;9.35;;;2.88;;
59145;SDS011;44928;53.074;6.646;2023-03-17T01:31:10;6.53;;;2.45;;
59145;SDS011;44928;53.074;6.646;2023-03-17T01:33:36;6.82;;;2.83;;
59145;SDS011;44928;53.074;6.646;2023-03-17T01:36:02;6.53;;;2.58;;
59145;SDS011;44928;53.074;6.646;2023-03-17T01:38:28;8.20;;;2.85;;
59145;SDS011;44928;53.074;6.646;2023-03-17T01:40:54;7.10;;;2.65;;
59145;SDS011;44928;53.074;6.646;2023-03-17T01:43:22;7.15;;;2.35;;
59145;SDS011;44928;53.074;6.646;2023-03-17T01:48:41;6.97;;;2.53;;
59145;SDS011;44928;53.074;6.646;2023-03-17T01:54:04;7.78;;;2.80;;
59145;SDS011;44928;53.074;6.646;2023-03-17T01:59:02;7.43;;;2.30;;
59145;SDS011;44928;53.074;6.646;2023-03-17T02:01:38;7.13;;;2.80;;
59145;SDS011;44928;53.074;6.646;2023-03-17T02:04:08;7.35;;;2.58;;
59145;SDS011;44928;53.074;6.646;2023-03-17T02:06:35;6.65;;;2.67;;
59145;SDS011;44928;53.074;6.646;2023-03-17T02:09:02;6.88;;;2.42;;
59145;SDS011;44928;53.074;6.646;2023-03-17T02:11:28;9.45;;;2.78;;
59145;SDS011;44928;53.074;6.646;2023-03-17T02:13:55;7.15;;;2.42;;
59145;SDS011;44928;53.074;6.646;2023-03-17T02:16:21;7.30;;;2.65;;
59145;SDS011;44928;53.074;6.646;2023-03-17T02:18:47;7.05;;;2.72;;
59145;SDS011;44928;53.074;6.646;2023-03-17T02:21:55;7.15;;;2.80;;
59145;SDS011;44928;53.074;6.646;2023-03-17T02:24:18;6.45;;;2.20;;
59145;SDS011;44928;53.074;6.646;2023-03-17T02:26:46;6.53;;;2.40;;
59145;SDS011;44928;53.074;6.646;2023-03-17T02:29:13;8.45;;;2.53;;
59145;SDS011;44928;53.074;6.646;2023-03-17T02:31:41;7.57;;;2.58;;
59145;SDS011;44928;53.074;6.646;2023-03-17T02:34:08;6.72;;;2.53;;
59145;SDS011;44928;53.074;6.646;2023-03-17T02:36:34;7.72;;;2.42;;
59145;SDS011;44928;53.074;6.646;2023-03-17T02:39:00;8.63;;;2.58;;
59145;SDS011;44928;53.074;6.646;2023-03-17T02:41:26;7.32;;;3.15;;
59145;SDS011;44928;53.074;6.646;2023-03-17T02:43:52;7.60;;;2.70;;
59145;SDS011;44928;53.074;6.646;2023-03-17T02:46:18;9.85;;;2.92;;
59145;SDS011;44928;53.074;6.646;2023-03-17T02:48:44;7.07;;;2.22;;
59145;SDS011;44928;53.074;6.646;2023-03-17T02:51:11;7.50;;;3.00;;
59145;SDS011;44928;53.074;6.646;2023-03-17T02:53:37;7.15;;;2.67;;
59145;SDS011;44928;53.074;6.646;2023-03-17T02:56:03;7.28;;;2.72;;
59145;SDS011;44928;53.074;6.646;2023-03-17T02:58:29;7.85;;;2.65;;
59145;SDS011;44928;53.074;6.646;2023-03-17T03:00:55;7.60;;;2.50;;
59145;SDS011;44928;53.074;6.646;2023-03-17T03:03:20;9.90;;;2.72;;
59145;SDS011;44928;53.074;6.646;2023-03-17T03:05:46;7.40;;;2.70;;
59145;SDS011;44928;53.074;6.646;2023-03-17T03:08:12;7.50;;;2.70;;
59145;SDS011;44928;53.074;6.646;2023-03-17T03:10:38;8.32;;;2.67;;
59145;SDS011;44928;53.074;6.646;2023-03-17T03:13:04;7.95;;;2.85;;
59145;SDS011;44928;53.074;6.646;2023-03-17T03:15:30;7.00;;;2.70;;
59145;SDS011;44928;53.074;6.646;2023-03-17T03:17:55;7.78;;;2.75;;
59145;SDS011;44928;53.074;6.646;2023-03-17T03:20:21;8.68;;;3.10;;
59145;SDS011;44928;53.074;6.646;2023-03-17T03:22:47;7.65;;;3.13;;
59145;SDS011;44928;53.074;6.646;2023-03-17T03:25:13;7.30;;;2.67;;
59145;SDS011;44928;53.074;6.646;2023-03-17T03:27:38;7.00;;;2.70;;
59145;SDS011;44928;53.074;6.646;2023-03-17T03:30:05;8.43;;;2.92;;
59145;SDS011;44928;53.074;6.646;2023-03-17T03:32:32;7.07;;;2.40;;
59145;SDS011;44928;53.074;6.646;2023-03-17T03:34:58;7.78;;;2.90;;
59145;SDS011;44928;53.074;6.646;2023-03-17T03:37:24;7.90;;;2.50;;
59145;SDS011;44928;53.074;6.646;2023-03-17T03:39:51;6.45;;;2.58;;
59145;SDS011;44928;53.074;6.646;2023-03-17T03:42:17;7.68;;;2.58;;
59145;SDS011;44928;53.074;6.646;2023-03-17T03:44:42;8.35;;;2.60;;
59145;SDS011;44928;53.074;6.646;2023-03-17T03:47:08;7.68;;;2.80;;
59145;SDS011;44928;53.074;6.646;2023-03-17T03:49:34;8.45;;;2.55;;
59145;SDS011;44928;53.074;6.646;2023-03-17T03:52:00;7.07;;;2.40;;
59145;SDS011;44928;53.074;6.646;2023-03-17T03:54:26;7.45;;;2.50;;
59145;SDS011;44928;53.074;6.646;2023-03-17T03:56:51;6.93;;;2.70;;
59145;SDS011;44928;53.074;6.646;2023-03-17T03:59:17;6.47;;;2.67;;
59145;SDS011;44928;53.074;6.646;2023-03-17T04:01:43;7.70;;;2.70;;
59145;SDS011;44928;53.074;6.646;2023-03-17T04:04:09;7.50;;;2.30;;
59145;SDS011;44928;53.074;6.646;2023-03-17T04:06:35;7.30;;;2.80;;
59145;SDS011;44928;53.074;6.646;2023-03-17T04:09:01;8.35;;;2.90;;
59145;SDS011;44928;53.074;6.646;2023-03-17T04:11:27;6.18;;;2.38;;
59145;SDS011;44928;53.074;6.646;2023-03-17T04:13:53;8.68;;;2.60;;
59145;SDS011;44928;53.074;6.646;2023-03-17T04:16:19;5.50;;;2.20;;
59145;SDS011;44928;53.074;6.646;2023-03-17T04:18:44;8.15;;;2.65;;
59145;SDS011;44928;53.074;6.646;2023-03-17T04:21:10;6.60;;;2.50;;
59145;SDS011;44928;53.074;6.646;2023-03-17T04:23:37;7.57;;;2.55;;
59145;SDS011;44928;53.074;6.646;2023-03-17T04:26:03;8.05;;;2.50;;
59145;SDS011;44928;53.074;6.646;2023-03-17T04:28:30;9.88;;;3.40;;
59145;SDS011;44928;53.074;6.646;2023-03-17T04:30:55;8.20;;;2.88;;
59145;SDS011;44928;53.074;6.646;2023-03-17T04:33:21;8.25;;;2.50;;
59145;SDS011;44928;53.074;6.646;2023-03-17T04:35:47;6.75;;;2.17;;
59145;SDS011;44928;53.074;6.646;2023-03-17T04:38:13;8.30;;;2.55;;
59145;SDS011;44928;53.074;6.646;2023-03-17T04:40:38;8.25;;;2.60;;
59145;SDS011;44928;53.074;6.646;2023-03-17T04:43:04;7.07;;;2.72;;
59145;SDS011;44928;53.074;6.646;2023-03-17T04:45:30;6.90;;;2.55;;
59145;SDS011;44928;53.074;6.646;2023-03-17T04:47:56;7.70;;;2.72;;
59145;SDS011;44928;53.074;6.646;2023-03-17T04:50:22;7.82;;;2.75;;
59145;SDS011;44928;53.074;6.646;2023-03-17T04:52:48;6.80;;;2.35;;
59145;SDS011;44928;53.074;6.646;2023-03-17T04:55:13;6.60;;;2.58;;
59145;SDS011;44928;53.074;6.646;2023-03-17T04:57:41;8.15;;;2.45;;
59145;SDS011;44928;53.074;6.646;2023-03-17T05:00:07;7.20;;;2.88;;
59145;SDS011;44928;53.074;6.646;2023-03-17T05:02:34;6.78;;;2.55;;
59145;SDS011;44928;53.074;6.646;2023-03-17T05:04:59;5.82;;;2.20;;
59145;SDS011;44928;53.074;6.646;2023-03-17T05:07:26;6.88;;;2.50;;
59145;SDS011;44928;53.074;6.646;2023-03-17T05:09:51;6.35;;;2.40;;
59145;SDS011;44928;53.074;6.646;2023-03-17T05:12:17;8.80;;;2.47;;
59145;SDS011;44928;53.074;6.646;2023-03-17T05:14:43;7.20;;;2.45;;
59145;SDS011;44928;53.074;6.646;2023-03-17T05:17:09;7.10;;;2.38;;
59145;SDS011;44928;53.074;6.646;2023-03-17T05:19:35;8.35;;;2.90;;
59145;SDS011;44928;53.074;6.646;2023-03-17T05:22:00;7.95;;;2.45;;
59145;SDS011;44928;53.074;6.646;2023-03-17T05:24:26;6.88;;;2.88;;
59145;SDS011;44928;53.074;6.646;2023-03-17T05:26:52;6.95;;;2.50;;
59145;SDS011;44928;53.074;6.646;2023-03-17T05:29:18;7.20;;;2.70;;
59145;SDS011;44928;53.074;6.646;2023-03-17T05:31:44;7.55;;;2.70;;
59145;SDS011;44928;53.074;6.646;2023-03-17T05:34:10;9.80;;;2.50;;
59145;SDS011;44928;53.074;6.646;2023-03-17T05:36:35;7.50;;;2.60;;
59145;SDS011;44928;53.074;6.646;2023-03-17T05:39:01;8.40;;;2.60;;
59145;SDS011;44928;53.074;6.646;2023-03-17T05:41:28;8.07;;;2.50;;
59145;SDS011;44928;53.074;6.646;2023-03-17T05:43:54;6.85;;;2.50;;
59145;SDS011;44928;53.074;6.646;2023-03-17T05:46:20;7.65;;;2.70;;
59145;SDS011;44928;53.074;6.646;2023-03-17T05:48:46;8.95;;;3.28;;
59145;SDS011;44928;53.074;6.646;2023-03-17T05:51:13;8.73;;;2.50;;
59145;SDS011;44928;53.074;6.646;2023-03-17T05:53:38;7.68;;;2.88;;
59145;SDS011;44928;53.074;6.646;2023-03-17T05:56:05;7.57;;;2.72;;
59145;SDS011;44928;53.074;6.646;2023-03-17T05:58:31;8.45;;;2.70;;
59145;SDS011;44928;53.074;6.646;2023-03-17T06:00:57;9.23;;;2.88;;
59145;SDS011;44928;53.074;6.646;2023-03-17T06:03:23;7.28;;;2.40;;
59145;SDS011;44928;53.074;6.646;2023-03-17T06:05:48;7.70;;;2.67;;
59145;SDS011;44928;53.074;6.646;2023-03-17T06:08:14;7.55;;;2.53;;
59145;SDS011;44928;53.074;6.646;2023-03-17T06:10:41;6.30;;;2.63;;
59145;SDS011;44928;53.074;6.646;2023-03-17T06:13:07;8.50;;;2.97;;
59145;SDS011;44928;53.074;6.646;2023-03-17T06:15:33;9.07;;;3.08;;
59145;SDS011;44928;53.074;6.646;2023-03-17T06:18:01;6.88;;;2.60;;
59145;SDS011;44928;53.074;6.646;2023-03-17T06:20:29;8.05;;;2.45;;
59145;SDS011;44928;53.074;6.646;2023-03-17T06:22:56;6.57;;;2.63;;
59145;SDS011;44928;53.074;6.646;2023-03-17T06:25:22;8.68;;;2.83;;
59145;SDS011;44928;53.074;6.646;2023-03-17T06:27:48;7.43;;;2.38;;
59145;SDS011;44928;53.074;6.646;2023-03-17T06:30:18;7.38;;;3.00;;
59145;SDS011;44928;53.074;6.646;2023-03-17T06:32:45;7.38;;;2.60;;
59145;SDS011;44928;53.074;6.646;2023-03-17T06:35:11;8.30;;;2.63;;
59145;SDS011;44928;53.074;6.646;2023-03-17T06:37:37;7.65;;;2.85;;
59145;SDS011;44928;53.074;6.646;2023-03-17T06:40:03;6.97;;;2.72;;
59145;SDS011;44928;53.074;6.646;2023-03-17T06:42:33;9.35;;;3.00;;
59145;SDS011;44928;53.074;6.646;2023-03-17T06:44:59;6.72;;;2.60;;
59145;SDS011;44928;53.074;6.646;2023-03-17T06:47:25;7.70;;;2.92;;
59145;SDS011;44928;53.074;6.646;2023-03-17T06:49:50;7.88;;;2.75;;
59145;SDS011;44928;53.074;6.646;2023-03-17T06:52:17;8.52;;;3.08;;
59145;SDS011;44928;53.074;6.646;2023-03-17T06:54:43;8.25;;;2.92;;
59145;SDS011;44928;53.074;6.646;2023-03-17T06:57:09;7.65;;;2.70;;
59145;SDS011;44928;53.074;6.646;2023-03-17T06:59:35;7.00;;;3.17;;
59145;SDS011;44928;53.074;6.646;2023-03-17T07:02:01;9.25;;;3.10;;
59145;SDS011;44928;53.074;6.646;2023-03-17T07:04:27;7.40;;;2.50;;
59145;SDS011;44928;53.074;6.646;2023-03-17T07:06:53;7.93;;;2.70;;
59145;SDS011;44928;53.074;6.646;2023-03-17T07:09:19;8.63;;;2.67;;
59145;SDS011;44928;53.074;6.646;2023-03-17T07:11:46;8.27;;;2.80;;
59145;SDS011;44928;53.074;6.646;2023-03-17T07:14:11;7.93;;;2.90;;
59145;SDS011;44928;53.074;6.646;2023-03-17T07:16:37;6.65;;;2.75;;
59145;SDS011;44928;53.074;6.646;2023-03-17T07:19:04;7.50;;;2.85;;
59145;SDS011;44928;53.074;6.646;2023-03-17T07:21:31;7.63;;;2.90;;
59145;SDS011;44928;53.074;6.646;2023-03-17T07:23:57;9.25;;;2.85;;
59145;SDS011;44928;53.074;6.646;2023-03-17T07:26:23;7.15;;;2.70;;
59145;SDS011;44928;53.074;6.646;2023-03-17T07:28:48;8.35;;;3.10;;
59145;SDS011;44928;53.074;6.646;2023-03-17T07:31:14;7.55;;;2.97;;
59145;SDS011;44928;53.074;6.646;2023-03-17T07:33:41;7.88;;;3.20;;
59145;SDS011;44928;53.074;6.646;2023-03-17T07:36:06;6.82;;;2.78;;
59145;SDS011;44928;53.074;6.646;2023-03-17T07:38:33;8.50;;;3.03;;
59145;SDS011;44928;53.074;6.646;2023-03-17T07:40:59;9.48;;;2.75;;
59145;SDS011;44928;53.074;6.646;2023-03-17T07:43:25;9.02;;;3.05;;
59145;SDS011;44928;53.074;6.646;2023-03-17T07:45:51;9.25;;;2.80;;
59145;SDS011;44928;53.074;6.646;2023-03-17T07:48:17;7.55;;;2.70;;
59145;SDS011;44928;53.074;6.646;2023-03-17T07:50:43;8.60;;;3.33;;
59145;SDS011;44928;53.074;6.646;2023-03-17T07:53:09;7.30;;;2.75;;
59145;SDS011;44928;53.074;6.646;2023-03-17T07:55:35;7.88;;;2.80;;
59145;SDS011;44928;53.074;6.646;2023-03-17T07:58:03;8.45;;;2.75;;
59145;SDS011;44928;53.074;6.646;2023-03-17T08:00:29;8.27;;;2.85;;
59145;SDS011;44928;53.074;6.646;2023-03-17T08:02:55;7.28;;;2.80;;
59145;SDS011;44928;53.074;6.646;2023-03-17T08:05:21;8.32;;;3.03;;
59145;SDS011;44928;53.074;6.646;2023-03-17T08:07:48;9.25;;;3.20;;
59145;SDS011;44928;53.074;6.646;2023-03-17T08:10:14;7.18;;;2.60;;
59145;SDS011;44928;53.074;6.646;2023-03-17T08:12:41;7.40;;;2.85;;
59145;SDS011;44928;53.074;6.646;2023-03-17T08:15:07;7.72;;;3.08;;
59145;SDS011;44928;53.074;6.646;2023-03-17T08:17:34;9.65;;;3.20;;
59145;SDS011;44928;53.074;6.646;2023-03-17T08:20:00;10.57;;;4.47;;
59145;SDS011;44928;53.074;6.646;2023-03-17T08:22:27;7.88;;;3.05;;
59145;SDS011;44928;53.074;6.646;2023-03-17T08:24:53;7.03;;;2.80;;
59145;SDS011;44928;53.074;6.646;2023-03-17T08:27:19;11.07;;;2.80;;
59145;SDS011;44928;53.074;6.646;2023-03-17T08:29:46;9.45;;;3.25;;
59145;SDS011;44928;53.074;6.646;2023-03-17T08:32:12;6.05;;;2.53;;
59145;SDS011;44928;53.074;6.646;2023-03-17T08:34:39;8.27;;;2.80;;
59145;SDS011;44928;53.074;6.646;2023-03-17T08:37:04;9.85;;;3.20;;
59145;SDS011;44928;53.074;6.646;2023-03-17T08:39:31;8.20;;;2.97;;
59145;SDS011;44928;53.074;6.646;2023-03-17T08:41:57;8.35;;;2.42;;
59145;SDS011;44928;53.074;6.646;2023-03-17T08:44:23;9.60;;;3.03;;
59145;SDS011;44928;53.074;6.646;2023-03-17T08:46:49;8.05;;;3.10;;
59145;SDS011;44928;53.074;6.646;2023-03-17T08:49:16;8.73;;;3.03;;
59145;SDS011;44928;53.074;6.646;2023-03-17T08:51:42;10.30;;;3.28;;
59145;SDS011;44928;53.074;6.646;2023-03-17T08:54:09;8.38;;;3.10;;
59145;SDS011;44928;53.074;6.646;2023-03-17T08:56:36;7.82;;;2.80;;
59145;SDS011;44928;53.074;6.646;2023-03-17T08:59:04;9.48;;;3.00;;
59145;SDS011;44928;53.074;6.646;2023-03-17T09:01:31;7.32;;;2.95;;
59145;SDS011;44928;53.074;6.646;2023-03-17T09:03:57;8.52;;;2.90;;
59145;SDS011;44928;53.074;6.646;2023-03-17T09:06:23;9.18;;;3.03;;
59145;SDS011;44928;53.074;6.646;2023-03-17T09:08:49;10.68;;;3.60;;
59145;SDS011;44928;53.074;6.646;2023-03-17T09:11:19;9.57;;;2.83;;
59145;SDS011;44928;53.074;6.646;2023-03-17T09:13:47;9.77;;;3.30;;
59145;SDS011;44928;53.074;6.646;2023-03-17T09:16:13;9.50;;;3.00;;
59145;SDS011;44928;53.074;6.646;2023-03-17T09:18:41;8.30;;;3.08;;
59145;SDS011;44928;53.074;6.646;2023-03-17T09:21:06;9.13;;;3.30;;
59145;SDS011;44928;53.074;6.646;2023-03-17T09:23:33;7.05;;;3.03;;
59145;SDS011;44928;53.074;6.646;2023-03-17T09:25:59;9.85;;;4.28;;
59145;SDS011;44928;53.074;6.646;2023-03-17T09:28:26;9.25;;;3.30;;
59145;SDS011;44928;53.074;6.646;2023-03-17T09:31:02;8.38;;;3.15;;
59145;SDS011;44928;53.074;6.646;2023-03-17T09:33:30;7.63;;;3.42;;
59145;SDS011;44928;53.074;6.646;2023-03-17T09:35:55;7.00;;;3.00;;
59145;SDS011;44928;53.074;6.646;2023-03-17T09:38:25;7.57;;;3.17;;
59145;SDS011;44928;53.074;6.646;2023-03-17T09:49:36;8.95;;;3.33;;
59145;SDS011;44928;53.074;6.646;2023-03-17T09:52:11;7.50;;;2.92;;
59145;SDS011;44928;53.074;6.646;2023-03-17T09:54:39;10.43;;;3.00;;
59145;SDS011;44928;53.074;6.646;2023-03-17T09:57:16;7.82;;;3.42;;
59145;SDS011;44928;53.074;6.646;2023-03-17T09:59:56;10.98;;;3.28;;
59145;SDS011;44928;53.074;6.646;2023-03-17T10:02:31;6.95;;;3.05;;
59145;SDS011;44928;53.074;6.646;2023-03-17T10:05:12;9.48;;;3.75;;
59145;SDS011;44928;53.074;6.646;2023-03-17T10:14:02;8.27;;;3.20;;
59145;SDS011;44928;53.074;6.646;2023-03-17T10:16:57;7.65;;;2.97;;
59145;SDS011;44928;53.074;6.646;2023-03-17T10:21:55;8.45;;;3.30;;
59145;SDS011;44928;53.074;6.646;2023-03-17T10:24:28;10.05;;;3.78;;
59145;SDS011;44928;53.074;6.646;2023-03-17T10:26:57;10.57;;;3.63;;
59145;SDS011;44928;53.074;6.646;2023-03-17T10:29:27;8.30;;;3.60;;
59145;SDS011;44928;53.074;6.646;2023-03-17T10:31:53;8.93;;;3.80;;
59145;SDS011;44928;53.074;6.646;2023-03-17T10:34:31;8.63;;;3.45;;
59145;SDS011;44928;53.074;6.646;2023-03-17T10:37:00;9.10;;;3.78;;
59145;SDS011;44928;53.074;6.646;2023-03-17T10:39:26;10.93;;;3.88;;
59145;SDS011;44928;53.074;6.646;2023-03-17T10:41:59;7.75;;;3.20;;
59145;SDS011;44928;53.074;6.646;2023-03-17T10:44:55;8.00;;;3.30;;
59145;SDS011;44928;53.074;6.646;2023-03-17T10:47:33;7.80;;;3.45;;
59145;SDS011;44928;53.074;6.646;2023-03-17T10:50:20;10.48;;;3.78;;
59145;SDS011;44928;53.074;6.646;2023-03-17T10:52:50;9.95;;;3.72;;
59145;SDS011;44928;53.074;6.646;2023-03-17T10:55:19;8.52;;;3.40;;
59145;SDS011;44928;53.074;6.646;2023-03-17T10:57:57;9.27;;;3.50;;
59145;SDS011;44928;53.074;6.646;2023-03-17T11:00:31;9.00;;;3.78;;
59145;SDS011;44928;53.074;6.646;2023-03-17T11:03:10;7.47;;;3.42;;
59145;SDS011;44928;53.074;6.646;2023-03-17T11:05:53;8.80;;;3.33;;
59145;SDS011;44928;53.074;6.646;2023-03-17T11:08:28;11.93;;;3.90;;
59145;SDS011;44928;53.074;6.646;2023-03-17T11:11:02;8.75;;;3.55;;
59145;SDS011;44928;53.074;6.646;2023-03-17T11:13:30;9.02;;;3.38;;
59145;SDS011;44928;53.074;6.646;2023-03-17T11:16:02;9.38;;;3.20;;
59145;SDS011;44928;53.074;6.646;2023-03-17T11:18:34;8.43;;;3.47;;
59145;SDS011;44928;53.074;6.646;2023-03-17T11:21:14;9.57;;;3.80;;
59145;SDS011;44928;53.074;6.646;2023-03-17T11:23:51;8.68;;;4.13;;
59145;SDS011;44928;53.074;6.646;2023-03-17T11:26:45;9.35;;;4.05;;
59145;SDS011;44928;53.074;6.646;2023-03-17T11:42:31;9.40;;;3.75;;
59145;SDS011;44928;53.074;6.646;2023-03-17T11:45:20;11.38;;;4.03;;
59145;SDS011;44928;53.074;6.646;2023-03-17T11:48:02;8.77;;;3.35;;
59145;SDS011;44928;53.074;6.646;2023-03-17T11:50:53;10.18;;;3.92;;
59145;SDS011;44928;53.074;6.646;2023-03-17T11:56:06;11.30;;;4.40;;
59145;SDS011;44928;53.074;6.646;2023-03-17T11:59:28;10.38;;;3.70;;
59145;SDS011;44928;53.074;6.646;2023-03-17T12:04:57;11.23;;;4.13;;
59145;SDS011;44928;53.074;6.646;2023-03-17T12:07:38;9.50;;;4.10;;
59145;SDS011;44928;53.074;6.646;2023-03-17T12:12:49;9.40;;;4.55;;
59145;SDS011;44928;53.074;6.646;2023-03-17T12:15:29;9.95;;;4.28;;
59145;SDS011;44928;53.074;6.646;2023-03-17T12:18:19;9.93;;;3.90;;
59145;SDS011;44928;53.074;6.646;2023-03-17T12:20:53;10.57;;;4.57;;
59145;SDS011;44928;53.074;6.646;2023-03-17T12:26:36;11.43;;;4.05;;
59145;SDS011;44928;53.074;6.646;2023-03-17T12:29:11;8.55;;;4.30;;
59145;SDS011;44928;53.074;6.646;2023-03-17T12:31:44;10.50;;;4.75;;
59145;SDS011;44928;53.074;6.646;2023-03-17T12:34:38;9.15;;;4.68;;
59145;SDS011;44928;53.074;6.646;2023-03-17T12:37:13;9.68;;;4.50;;
59145;SDS011;44928;53.074;6.646;2023-03-17T12:39:43;9.68;;;4.00;;
59145;SDS011;44928;53.074;6.646;2023-03-17T12:53:49;9.07;;;4.65;;
59145;SDS011;44928;53.074;6.646;2023-03-17T12:58:53;9.15;;;4.75;;
59145;SDS011;44928;53.074;6.646;2023-03-17T13:01:28;10.57;;;4.53;;
59145;SDS011;44928;53.074;6.646;2023-03-17T13:04:05;9.52;;;4.63;;
59145;SDS011;44928;53.074;6.646;2023-03-17T13:06:37;9.00;;;4.72;;
59145;SDS011;44928;53.074;6.646;2023-03-17T13:12:02;9.93;;;4.90;;
59145;SDS011;44928;53.074;6.646;2023-03-17T13:19:55;11.05;;;4.82;;
59145;SDS011;44928;53.074;6.646;2023-03-17T13:35:41;9.88;;;4.32;;
59145;SDS011;44928;53.074;6.646;2023-03-17T13:41:36;10.45;;;5.07;;
59145;SDS011;44928;53.074;6.646;2023-03-17T13:46:53;10.18;;;5.28;;
59145;SDS011;44928;53.074;6.646;2023-03-17T13:51:51;13.30;;;5.22;;
59145;SDS011;44928;53.074;6.646;2023-03-17T13:54:32;9.57;;;5.20;;
59145;SDS011;44928;53.074;6.646;2023-03-17T13:57:27;8.88;;;4.82;;
59145;SDS011;44928;53.074;6.646;2023-03-17T13:59:59;12.57;;;5.28;;
59145;SDS011;44928;53.074;6.646;2023-03-17T14:02:36;9.93;;;5.07;;
59145;SDS011;44928;53.074;6.646;2023-03-17T14:05:06;12.02;;;5.10;;
59145;SDS011;44928;53.074;6.646;2023-03-17T14:07:49;9.55;;;4.72;;
59145;SDS011;44928;53.074;6.646;2023-03-17T14:10:30;10.05;;;4.88;;
59145;SDS011;44928;53.074;6.646;2023-03-17T14:15:26;9.35;;;4.82;;
59145;SDS011;44928;53.074;6.646;2023-03-17T14:18:11;15.05;;;4.50;;
59145;SDS011;44928;53.074;6.646;2023-03-17T14:20:51;10.07;;;4.90;;
59145;SDS011;44928;53.074;6.646;2023-03-17T14:23:21;12.70;;;4.60;;
59145;SDS011;44928;53.074;6.646;2023-03-17T14:25:49;9.88;;;4.70;;
59145;SDS011;44928;53.074;6.646;2023-03-17T14:28:16;10.65;;;4.85;;
59145;SDS011;44928;53.074;6.646;2023-03-17T14:30:53;10.90;;;5.13;;
59145;SDS011;44928;53.074;6.646;2023-03-17T14:33:25;8.73;;;4.30;;
59145;SDS011;44928;53.074;6.646;2023-03-17T14:35:56;9.20;;;4.68;;
59145;SDS011;44928;53.074;6.646;2023-03-17T14:38:33;8.90;;;4.75;;
59145;SDS011;44928;53.074;6.646;2023-03-17T14:41:04;9.57;;;4.40;;
59145;SDS011;44928;53.074;6.646;2023-03-17T14:43:42;9.35;;;4.65;;
59145;SDS011;44928;53.074;6.646;2023-03-17T14:46:22;10.57;;;5.40;;
59145;SDS011;44928;53.074;6.646;2023-03-17T14:48:50;11.18;;;5.32;;
59145;SDS011;44928;53.074;6.646;2023-03-17T14:51:26;9.85;;;4.68;;
59145;SDS011;44928;53.074;6.646;2023-03-17T14:53:56;9.52;;;4.30;;
59145;SDS011;44928;53.074;6.646;2023-03-17T14:56:34;11.82;;;5.40;;
59145;SDS011;44928;53.074;6.646;2023-03-17T14:59:14;11.75;;;4.82;;
59145;SDS011;44928;53.074;6.646;2023-03-17T15:01:43;8.90;;;4.72;;
59145;SDS011;44928;53.074;6.646;2023-03-17T15:04:15;9.90;;;4.90;;
59145;SDS011;44928;53.074;6.646;2023-03-17T15:11:54;8.85;;;4.60;;
59145;SDS011;44928;53.074;6.646;2023-03-17T15:14:32;10.55;;;4.95;;
59145;SDS011;44928;53.074;6.646;2023-03-17T15:17:00;9.98;;;4.82;;
59145;SDS011;44928;53.074;6.646;2023-03-17T15:19:38;10.57;;;4.68;;
59145;SDS011;44928;53.074;6.646;2023-03-17T15:22:23;10.77;;;4.80;;
59145;SDS011;44928;53.074;6.646;2023-03-17T15:27:31;10.43;;;4.82;;
59145;SDS011;44928;53.074;6.646;2023-03-17T15:29:58;10.77;;;4.97;;
59145;SDS011;44928;53.074;6.646;2023-03-17T15:32:25;12.02;;;5.38;;
59145;SDS011;44928;53.074;6.646;2023-03-17T15:34:52;11.40;;;5.35;;
59145;SDS011;44928;53.074;6.646;2023-03-17T15:37:24;10.23;;;4.60;;
59145;SDS011;44928;53.074;6.646;2023-03-17T15:39:54;12.38;;;4.85;;
59145;SDS011;44928;53.074;6.646;2023-03-17T15:42:27;9.63;;;4.45;;
59145;SDS011;44928;53.074;6.646;2023-03-17T15:44:55;9.27;;;4.15;;
59145;SDS011;44928;53.074;6.646;2023-03-17T15:47:24;11.32;;;3.97;;
59145;SDS011;44928;53.074;6.646;2023-03-17T15:49:53;9.75;;;3.78;;
59145;SDS011;44928;53.074;6.646;2023-03-17T15:52:23;11.52;;;4.80;;
59145;SDS011;44928;53.074;6.646;2023-03-17T15:54:51;9.50;;;4.78;;
59145;SDS011;44928;53.074;6.646;2023-03-17T15:57:18;10.98;;;4.88;;
59145;SDS011;44928;53.074;6.646;2023-03-17T15:59:44;12.52;;;4.85;;
59145;SDS011;44928;53.074;6.646;2023-03-17T16:04:51;12.73;;;5.40;;
59145;SDS011;44928;53.074;6.646;2023-03-17T16:07:17;10.45;;;3.88;;
59145;SDS011;44928;53.074;6.646;2023-03-17T16:09:43;10.15;;;4.80;;
59145;SDS011;44928;53.074;6.646;2023-03-17T16:12:10;12.45;;;4.97;;
59145;SDS011;44928;53.074;6.646;2023-03-17T16:14:36;10.63;;;4.03;;
59145;SDS011;44928;53.074;6.646;2023-03-17T16:17:05;9.63;;;4.22;;
59145;SDS011;44928;53.074;6.646;2023-03-17T16:19:40;10.85;;;4.55;;
59145;SDS011;44928;53.074;6.646;2023-03-17T16:22:10;11.68;;;5.63;;
59145;SDS011;44928;53.074;6.646;2023-03-17T16:24:49;9.85;;;4.40;;
59145;SDS011;44928;53.074;6.646;2023-03-17T16:27:15;9.10;;;4.25;;
59145;SDS011;44928;53.074;6.646;2023-03-17T16:29:40;10.07;;;4.28;;
59145;SDS011;44928;53.074;6.646;2023-03-17T16:32:07;9.13;;;3.90;;
59145;SDS011;44928;53.074;6.646;2023-03-17T16:34:35;10.35;;;4.90;;
59145;SDS011;44928;53.074;6.646;2023-03-17T16:37:01;10.52;;;4.43;;
59145;SDS011;44928;53.074;6.646;2023-03-17T16:39:28;9.93;;;3.80;;
59145;SDS011;44928;53.074;6.646;2023-03-17T16:41:53;10.88;;;3.58;;
59145;SDS011;44928;53.074;6.646;2023-03-17T16:44:19;9.40;;;4.78;;
59145;SDS011;44928;53.074;6.646;2023-03-17T16:46:47;8.15;;;3.28;;
59145;SDS011;44928;53.074;6.646;2023-03-17T16:49:13;10.07;;;3.83;;